createdAt,value
2018-10-11T00:01:15.198Z,72.08
2018-10-11T00:03:54.097Z,72.93
2018-10-11T00:06:32.274Z,65.63
2018-10-11T00:09:15.567Z,71.83
2018-10-11T00:11:55.725Z,75.23
2018-10-11T00:14:36.347Z,66.67
2018-10-11T00:17:15.492Z,74.40
2018-10-11T00:19:54.142Z,72.90
2018-10-11T00:22:32.838Z,73.35
2018-10-11T00:25:14.016Z,75.80
2018-10-11T00:27:51.922Z,69.90
2018-10-11T00:30:29.387Z,70.75
2018-10-11T00:33:07.755Z,76.07
2018-10-11T00:35:43.538Z,75.03
2018-10-11T00:41:02.839Z,77.57
2018-10-11T00:43:41.370Z,77.77
2018-10-11T00:46:19.153Z,75.78
2018-10-11T00:48:57.841Z,75.37
2018-10-11T00:51:27.459Z,83.20
2018-10-11T00:53:56.993Z,73.00
2018-10-11T00:56:26.555Z,77.83
2018-10-11T00:58:56.116Z,82.00
2018-10-11T01:01:25.671Z,83.43
2018-10-11T01:03:55.303Z,79.60
2018-10-11T01:06:24.856Z,80.57
2018-10-11T01:08:54.437Z,79.63
2018-10-11T01:11:24.078Z,83.40
2018-10-11T01:13:53.879Z,82.08
2018-10-11T01:16:23.710Z,83.00
2018-10-11T01:18:53.565Z,85.53
2018-10-11T01:21:23.257Z,76.75
2018-10-11T01:23:53.084Z,83.40
2018-10-11T01:26:22.754Z,80.80
2018-10-11T01:28:52.431Z,82.80
2018-10-11T01:31:24.027Z,81.37
2018-10-11T01:33:54.004Z,79.70
2018-10-11T01:36:23.630Z,84.53
2018-10-11T01:38:54.349Z,93.92
2018-10-11T01:41:24.126Z,83.47
2018-10-11T01:43:53.883Z,87.90
2018-10-11T01:46:23.535Z,90.87
2018-10-11T01:48:54.939Z,86.00
2018-10-11T01:51:24.683Z,85.27
2018-10-11T01:53:54.542Z,82.77
2018-10-11T01:56:24.259Z,81.90
2018-10-11T01:58:54.100Z,85.38
2018-10-11T02:01:23.891Z,82.87
2018-10-11T02:03:53.724Z,88.83
2018-10-11T02:06:23.570Z,91.23
2018-10-11T02:08:53.433Z,82.83
2018-10-11T02:11:23.238Z,92.17
2018-10-11T02:13:53.123Z,91.20
2018-10-11T02:16:22.831Z,88.25
2018-10-11T02:18:52.645Z,88.83
2018-10-11T02:21:22.387Z,85.65
2018-10-11T02:23:52.056Z,88.17
2018-10-11T02:26:21.917Z,92.93
2018-10-11T02:28:51.618Z,91.80
2018-10-11T02:31:21.325Z,91.02
2018-10-11T02:33:51.180Z,89.40
2018-10-11T02:36:20.826Z,87.88
2018-10-11T02:38:50.644Z,86.00
2018-10-11T02:41:20.449Z,83.45
2018-10-11T02:43:50.261Z,87.83
2018-10-11T02:46:20.067Z,92.50
2018-10-11T02:48:49.861Z,93.17
2018-10-11T02:51:19.555Z,84.28
2018-10-11T02:53:49.125Z,87.97
2018-10-11T02:56:22.444Z,86.97
2018-10-11T02:59:08.615Z,90.03
2018-10-11T03:01:38.229Z,94.13
2018-10-11T03:04:07.846Z,93.43
2018-10-11T03:06:38.681Z,90.67
2018-10-11T03:09:09.163Z,92.60
2018-10-11T03:11:43.109Z,92.17
2018-10-11T03:14:12.870Z,90.10
2018-10-11T03:16:42.433Z,96.90
2018-10-11T03:19:11.985Z,86.08
2018-10-11T03:21:41.669Z,92.27
2018-10-11T03:24:11.368Z,90.62
2018-10-11T03:26:40.886Z,94.63
2018-10-11T03:29:10.454Z,100.60
2018-10-11T03:31:40.047Z,99.37
2018-10-11T03:34:09.585Z,97.50
2018-10-11T03:36:39.118Z,95.73
2018-10-11T03:39:08.818Z,94.80
2018-10-11T03:41:38.366Z,94.13
2018-10-11T03:44:07.917Z,96.13
2018-10-11T03:46:37.563Z,99.17
2018-10-11T03:49:07.522Z,95.00
2018-10-11T03:51:37.070Z,91.97
2018-10-11T03:54:06.624Z,88.10
2018-10-11T03:56:36.193Z,100.37
2018-10-11T03:59:07.278Z,95.75
2018-10-11T04:01:37.232Z,94.90
2018-10-11T04:04:06.813Z,93.30
2018-10-11T04:06:36.362Z,92.83
2018-10-11T04:09:07.447Z,92.87
2018-10-11T04:11:36.987Z,93.83
2018-10-11T04:14:06.550Z,93.53
2018-10-11T04:16:36.100Z,97.33
2018-10-11T04:19:06.674Z,93.27
2018-10-11T04:21:36.364Z,92.27
2018-10-11T04:24:06.000Z,99.67
2018-10-11T04:26:35.604Z,91.92
2018-10-11T04:29:06.355Z,87.85
2018-10-11T04:31:35.994Z,88.63
2018-10-11T04:34:06.262Z,91.02
2018-10-11T04:36:35.883Z,91.97
2018-10-11T04:39:09.396Z,94.80
2018-10-11T04:41:39.047Z,95.13
2018-10-11T04:44:08.675Z,87.90
2018-10-11T04:47:08.796Z,96.08
2018-10-11T04:49:38.411Z,87.60
2018-10-11T04:52:07.988Z,102.13
2018-10-11T04:54:37.547Z,90.03
2018-10-11T04:57:07.589Z,96.80
2018-10-11T04:59:37.218Z,97.10
2018-10-11T05:02:06.776Z,96.43
2018-10-11T05:04:36.330Z,94.13
2018-10-11T05:07:06.638Z,93.20
2018-10-11T05:09:37.341Z,94.03
2018-10-11T05:12:07.473Z,100.10
2018-10-11T05:14:37.108Z,92.77
2018-10-11T05:17:06.698Z,91.47
2018-10-11T05:19:38.255Z,100.70
2018-10-11T05:22:07.889Z,98.93
2018-10-11T05:24:49.868Z,99.20
2018-10-11T05:27:19.407Z,96.27
2018-10-11T05:29:48.934Z,93.87
2018-10-11T05:32:18.686Z,95.07
2018-10-11T05:34:48.294Z,94.67
2018-10-11T05:37:17.834Z,93.30
2018-10-11T05:39:47.407Z,98.40
2018-10-11T05:42:17.018Z,98.35
2018-10-11T05:44:46.668Z,89.30
2018-10-11T05:47:16.272Z,97.23
2018-10-11T05:49:45.889Z,93.43
2018-10-11T05:52:15.630Z,83.97
2018-10-11T05:54:45.267Z,92.17
2018-10-11T05:57:14.831Z,92.35
2018-10-11T05:59:44.450Z,98.00
2018-10-11T06:02:14.116Z,90.38
2018-10-11T06:04:43.718Z,92.80
2018-10-11T06:07:13.304Z,91.70
2018-10-11T06:09:43.002Z,89.83
2018-10-11T06:12:12.606Z,98.42
2018-10-11T06:14:42.195Z,96.00
2018-10-11T06:17:11.748Z,94.20
2018-10-11T06:19:41.415Z,95.70
2018-10-11T06:22:10.980Z,88.30
2018-10-11T06:24:40.586Z,90.13
2018-10-11T06:27:10.386Z,89.33
2018-10-11T06:29:43.697Z,92.33
2018-10-11T06:32:14.733Z,92.77
2018-10-11T06:34:49.413Z,94.03
2018-10-11T06:37:18.988Z,84.60
2018-10-11T06:39:48.609Z,87.87
2018-10-11T06:42:18.284Z,90.57
2018-10-11T06:44:47.890Z,94.83
2018-10-11T06:47:19.335Z,91.70
2018-10-11T06:49:49.044Z,91.23
2018-10-11T06:52:18.592Z,90.20
2018-10-11T06:54:48.307Z,90.50
2018-10-11T06:57:17.896Z,86.63
2018-10-11T06:59:47.487Z,82.77
2018-10-11T07:02:17.015Z,82.73
2018-10-11T07:04:46.564Z,89.50
2018-10-11T07:07:16.380Z,89.20
2018-10-11T07:09:45.936Z,79.17
2018-10-11T07:12:15.498Z,90.90
2018-10-11T07:14:45.042Z,87.63
2018-10-11T07:17:14.707Z,78.13
2018-10-11T07:19:44.546Z,85.13
2018-10-11T07:22:14.082Z,82.57
2018-10-11T07:24:43.697Z,82.87
2018-10-11T07:27:13.251Z,79.80
2018-10-11T07:29:42.807Z,77.20
2018-10-11T07:32:12.382Z,78.35
2018-10-11T07:34:42.042Z,74.33
2018-10-11T07:37:11.519Z,75.60
2018-10-11T07:39:41.091Z,73.13
2018-10-11T07:42:10.686Z,71.13
2018-10-11T07:44:40.227Z,68.17
2018-10-11T07:47:09.923Z,65.17
2018-10-11T07:49:44.129Z,70.77
2018-10-11T07:54:37.328Z,70.77
2018-10-11T07:57:07.019Z,71.10
2018-10-11T07:59:37.302Z,65.07
2018-10-11T08:02:06.996Z,66.63
2018-10-11T08:04:36.583Z,67.30
2018-10-11T08:07:06.725Z,63.15
2018-10-11T08:09:36.347Z,65.20
2018-10-11T08:12:06.414Z,65.32
2018-10-11T08:14:35.874Z,62.47
2018-10-11T08:17:06.734Z,61.10
2018-10-11T08:19:36.245Z,59.07
2018-10-11T08:22:06.441Z,58.08
2018-10-11T08:24:36.082Z,58.80
2018-10-11T08:27:06.746Z,58.05
2018-10-11T08:29:36.295Z,54.73
2018-10-11T08:32:06.697Z,56.92
2018-10-11T08:34:36.295Z,52.10
2018-10-11T08:37:06.259Z,53.58
2018-10-11T08:39:35.837Z,51.23
2018-10-11T08:42:06.325Z,54.65
2018-10-11T08:44:35.854Z,56.10
2018-10-11T08:47:05.399Z,52.07
2018-10-11T08:49:34.934Z,55.53
2018-10-11T08:52:04.532Z,51.08
2018-10-11T08:54:39.075Z,52.70
2018-10-11T08:57:08.697Z,47.45
2018-10-11T08:59:38.293Z,46.40
2018-10-11T09:02:07.907Z,46.63
2018-10-11T09:04:37.437Z,50.50
2018-10-11T09:07:07.109Z,44.63
2018-10-11T09:09:36.765Z,43.60
2018-10-11T09:12:06.541Z,44.88
2018-10-11T09:14:36.287Z,46.03
2018-10-11T09:17:06.596Z,45.03
2018-10-11T09:22:13.522Z,44.63
2018-10-11T09:24:43.079Z,42.17
2018-10-11T09:27:12.644Z,42.23
2018-10-11T09:29:42.451Z,43.23
2018-10-11T09:32:12.013Z,43.43
2018-10-11T09:34:41.583Z,43.87
2018-10-11T09:37:11.165Z,40.50
2018-10-11T09:39:40.719Z,39.27
2018-10-11T09:42:10.307Z,37.90
2018-10-11T09:44:39.850Z,38.60
2018-10-11T09:47:09.415Z,36.93
2018-10-11T09:49:38.975Z,37.93
2018-10-11T09:52:08.647Z,38.20
2018-10-11T09:54:38.187Z,38.73
2018-10-11T09:57:35.009Z,39.53
2018-10-11T10:00:09.967Z,38.20
2018-10-11T10:02:39.544Z,36.73
2018-10-11T10:05:11.382Z,39.63
2018-10-11T10:07:40.917Z,40.03
2018-10-11T10:10:10.578Z,36.30
2018-10-11T10:12:40.130Z,36.93
2018-10-11T10:15:09.744Z,35.10
2018-10-11T10:17:39.318Z,36.38
2018-10-11T10:20:08.889Z,35.30
2018-10-11T10:22:38.436Z,35.65
2018-10-11T10:25:08.038Z,34.00
2018-10-11T10:27:37.631Z,34.57
2018-10-11T10:30:12.802Z,32.40
2018-10-11T10:32:42.349Z,30.83
2018-10-11T10:35:11.891Z,31.90
2018-10-11T10:37:41.458Z,31.60
2018-10-11T10:40:11.097Z,27.62
2018-10-11T10:42:40.657Z,32.37
2018-10-11T10:45:10.842Z,29.50
2018-10-11T10:47:40.406Z,26.80
2018-10-11T10:50:09.954Z,27.30
2018-10-11T10:52:39.495Z,25.27
2018-10-11T10:55:09.154Z,26.57
2018-10-11T10:57:53.134Z,25.57
2018-10-11T11:00:22.887Z,27.30
2018-10-11T11:02:52.433Z,26.37
2018-10-11T11:05:21.980Z,26.03
2018-10-11T11:07:51.563Z,26.57
2018-10-11T11:10:21.105Z,23.55
2018-10-11T11:12:53.413Z,25.67
2018-10-11T11:15:22.970Z,25.20
2018-10-11T11:17:52.513Z,22.23
2018-10-11T11:20:22.058Z,27.50
2018-10-11T11:22:51.574Z,24.20
2018-10-11T11:25:21.175Z,24.03
2018-10-11T11:27:50.758Z,26.43
2018-10-11T11:30:20.302Z,24.50
2018-10-11T11:32:49.837Z,22.27
2018-10-11T11:35:19.380Z,23.50
2018-10-11T11:37:48.915Z,24.50
2018-10-11T11:40:18.503Z,23.70
2018-10-11T11:42:48.130Z,23.03
2018-10-11T11:45:17.726Z,20.23
2018-10-11T11:47:47.347Z,20.00
2018-10-11T11:50:16.918Z,21.30
2018-10-11T11:52:49.060Z,20.80
2018-10-11T11:55:18.668Z,18.87
2018-10-11T11:57:48.251Z,19.80
2018-10-11T12:00:17.892Z,20.90
2018-10-11T12:02:47.526Z,23.90
2018-10-11T12:05:17.116Z,22.32
2018-10-11T12:07:46.641Z,19.00
2018-10-11T12:10:16.268Z,18.87
2018-10-11T12:13:02.379Z,21.00
2018-10-11T12:15:32.638Z,20.10
2018-10-11T12:18:03.700Z,23.43
2018-10-11T12:20:34.368Z,20.43
2018-10-11T12:23:05.032Z,20.03
2018-10-11T12:25:34.985Z,22.57
2018-10-11T12:28:04.636Z,20.80
2018-10-11T12:30:34.262Z,18.53
2018-10-11T12:33:03.890Z,17.47
2018-10-11T12:35:33.471Z,16.10
2018-10-11T12:38:03.021Z,21.83
2018-10-11T12:40:32.558Z,18.27
2018-10-11T12:43:02.104Z,15.60
2018-10-11T12:45:31.707Z,14.30
2018-10-11T12:48:01.382Z,15.47
2018-10-11T12:50:31.024Z,14.80
2018-10-11T12:53:00.695Z,14.20
2018-10-11T12:55:30.242Z,15.43
2018-10-11T12:57:59.778Z,13.77
2018-10-11T13:00:29.337Z,14.10
2018-10-11T13:02:59.040Z,13.83
2018-10-11T13:05:28.469Z,13.67
2018-10-11T13:07:58.020Z,12.17
2018-10-11T13:10:27.598Z,12.30
2018-10-11T13:12:58.415Z,13.87
2018-10-11T13:15:26.770Z,11.80
2018-10-11T13:17:56.402Z,11.17
2018-10-11T13:20:25.908Z,11.45
2018-10-11T13:22:55.558Z,12.23
2018-10-11T13:25:25.016Z,13.47
2018-10-11T13:27:54.574Z,12.60
2018-10-11T13:30:24.134Z,11.40
2018-10-11T13:32:55.951Z,12.57
2018-10-11T13:35:25.506Z,11.57
2018-10-11T13:37:55.062Z,11.67
2018-10-11T13:40:24.640Z,12.55
2018-10-11T13:42:54.161Z,14.30
2018-10-11T13:45:23.766Z,14.85
2018-10-11T13:47:53.304Z,14.10
2018-10-11T13:50:22.850Z,13.68
2018-10-11T13:52:52.427Z,13.33
2018-10-11T13:55:21.939Z,14.63
2018-10-11T13:57:51.485Z,14.17
2018-10-11T14:00:21.230Z,17.10
2018-10-11T14:02:50.788Z,13.27
2018-10-11T14:05:20.341Z,13.20
2018-10-11T14:07:49.956Z,12.43
2018-10-11T14:10:19.452Z,13.20
2018-10-11T14:12:48.976Z,13.80
2018-10-11T14:15:18.508Z,12.47
2018-10-11T14:17:48.250Z,13.00
2018-10-11T14:20:17.695Z,11.40
2018-10-11T14:22:47.231Z,10.73
2018-10-11T14:25:16.771Z,11.40
2018-10-11T14:27:46.347Z,11.47
2018-10-11T14:30:15.940Z,12.30
2018-10-11T14:32:45.467Z,12.63
2018-10-11T14:35:15.037Z,12.13
2018-10-11T14:37:44.591Z,12.23
2018-10-11T14:40:14.119Z,10.70
2018-10-11T14:42:43.653Z,10.13
2018-10-11T14:45:13.201Z,10.20
2018-10-11T14:47:42.745Z,10.03
2018-10-11T14:50:12.342Z,12.13
2018-10-11T14:52:41.874Z,10.73
2018-10-11T14:55:11.407Z,10.77
2018-10-11T14:57:40.993Z,10.50
2018-10-11T15:00:10.539Z,11.77
2018-10-11T15:02:40.156Z,12.73
2018-10-11T15:05:09.680Z,14.17
2018-10-11T15:07:39.221Z,13.87
2018-10-11T15:10:08.776Z,12.97
2018-10-11T15:12:38.368Z,13.47
2018-10-11T15:15:09.034Z,14.03
2018-10-11T15:17:38.588Z,11.73
2018-10-11T15:20:08.250Z,12.90
2018-10-11T15:22:37.808Z,12.73
2018-10-11T15:25:08.003Z,12.40
2018-10-11T15:27:37.595Z,12.40
2018-10-11T15:30:07.758Z,14.23
2018-10-11T15:32:37.321Z,12.03
2018-10-11T15:35:07.165Z,12.77
2018-10-11T15:37:37.006Z,13.33
2018-10-11T15:40:06.827Z,14.57
2018-10-11T15:42:36.799Z,15.03
2018-10-11T15:45:08.193Z,14.40
2018-10-11T15:47:38.045Z,16.13
2018-10-11T15:50:15.235Z,14.90
2018-10-11T15:52:51.437Z,17.20
2018-10-11T15:55:21.051Z,16.55
2018-10-11T15:57:50.685Z,18.73
2018-10-11T16:00:20.391Z,17.52
2018-10-11T16:02:50.015Z,18.20
2018-10-11T16:05:19.837Z,18.60
2018-10-11T16:07:49.570Z,19.03
2018-10-11T16:10:19.262Z,18.80
2018-10-11T16:12:49.679Z,17.57
2018-10-11T16:15:19.439Z,18.52
2018-10-11T16:17:49.507Z,18.77
2018-10-11T16:20:19.121Z,18.12
2018-10-11T16:22:48.775Z,21.07
2018-10-11T16:25:18.467Z,20.00
2018-10-11T16:27:48.877Z,20.87
2018-10-11T16:30:18.555Z,20.97
2018-10-11T16:32:48.164Z,19.23
2018-10-11T16:35:18.011Z,24.92
2018-10-11T16:37:47.663Z,20.90
2018-10-11T16:40:17.559Z,22.35
2018-10-11T16:42:47.462Z,20.30
2018-10-11T16:45:17.121Z,20.97
2018-10-11T16:47:46.882Z,21.10
2018-10-11T16:50:16.453Z,20.27
2018-10-11T16:52:46.107Z,24.33
2018-10-11T16:55:15.728Z,21.17
2018-10-11T16:57:45.364Z,27.43
2018-10-11T17:00:15.008Z,26.97
2018-10-11T17:02:44.808Z,26.03
2018-10-11T17:05:14.439Z,24.23
2018-10-11T17:07:44.066Z,22.60
2018-10-11T17:10:13.647Z,23.60
2018-10-11T17:12:43.292Z,24.50
2018-10-11T17:15:12.869Z,26.73
2018-10-11T17:17:42.633Z,26.03
2018-10-11T17:20:12.248Z,23.80
2018-10-11T17:22:41.815Z,24.90
2018-10-11T17:25:11.539Z,24.32
2018-10-11T17:27:41.201Z,24.87
2018-10-11T17:30:11.078Z,26.12
2018-10-11T17:32:40.788Z,25.53
2018-10-11T17:35:10.495Z,27.93
2018-10-11T17:37:40.134Z,26.30
2018-10-11T17:40:09.940Z,25.80
2018-10-11T17:42:39.563Z,27.23
2018-10-11T17:45:09.255Z,27.37
2018-10-11T17:47:38.814Z,26.70
2018-10-11T17:50:08.740Z,25.43
2018-10-11T17:52:38.694Z,26.40
2018-10-11T17:55:08.460Z,24.43
2018-10-11T17:57:38.063Z,25.13
2018-10-11T18:00:08.035Z,22.53
2018-10-11T18:02:37.780Z,26.43
2018-10-11T18:05:08.112Z,24.73
2018-10-11T18:07:37.799Z,26.13
2018-10-11T18:10:07.688Z,25.07
2018-10-11T18:12:37.343Z,23.97
2018-10-11T18:15:07.494Z,23.40
2018-10-11T18:17:37.607Z,24.63
2018-10-11T18:20:07.767Z,25.95
2018-10-11T18:22:37.504Z,23.20
2018-10-11T18:25:07.236Z,22.53
2018-10-11T18:27:36.972Z,21.00
2018-10-11T18:30:09.727Z,23.03
2018-10-11T18:32:39.492Z,23.00
2018-10-11T18:35:10.045Z,23.90
2018-10-11T18:37:39.704Z,22.50
2018-10-11T18:40:09.354Z,24.43
2018-10-11T18:42:39.019Z,21.93
2018-10-11T18:45:08.865Z,23.80
2018-10-11T18:47:38.480Z,21.77
2018-10-11T18:50:08.246Z,22.83
2018-10-11T18:52:37.954Z,23.93
2018-10-11T18:55:07.634Z,21.17
2018-10-11T18:57:37.355Z,22.73
2018-10-11T19:00:08.591Z,23.17
2018-10-11T19:02:38.248Z,24.97
2018-10-11T19:05:08.015Z,22.87
2018-10-11T19:07:37.736Z,23.60
2018-10-11T19:10:07.367Z,25.32
2018-10-11T19:12:37.024Z,22.43
2018-10-11T19:15:06.913Z,22.17
2018-10-11T19:17:36.752Z,23.77
2018-10-11T19:20:06.432Z,27.37
2018-10-11T19:22:36.017Z,22.60
2018-10-11T19:25:05.692Z,26.33
2018-10-11T19:27:35.362Z,27.40
2018-10-11T19:30:06.473Z,23.97
2018-10-11T19:32:36.147Z,23.97
2018-10-11T19:35:06.603Z,25.17
2018-10-11T19:37:36.281Z,25.57
2018-10-11T19:40:07.315Z,23.90
2018-10-11T19:42:36.986Z,26.70
2018-10-11T19:45:07.070Z,26.07
2018-10-11T19:47:36.712Z,24.80
2018-10-11T19:50:06.931Z,24.67
2018-10-11T19:52:36.801Z,26.23
2018-10-11T19:55:08.264Z,23.30
2018-10-11T19:57:37.957Z,25.73
2018-10-11T20:00:07.832Z,25.43
2018-10-11T20:02:38.136Z,24.30
2018-10-11T20:05:07.872Z,26.23
2018-10-11T20:07:37.552Z,26.80
2018-10-11T20:10:07.303Z,29.07
2018-10-11T20:12:36.971Z,25.90
2018-10-11T20:15:07.066Z,24.80
2018-10-11T20:17:36.752Z,28.13
2018-10-11T20:20:06.523Z,27.57
2018-10-11T20:22:36.744Z,28.47
2018-10-11T20:25:07.047Z,26.13
2018-10-11T20:27:36.712Z,28.17
2018-10-11T20:30:06.815Z,25.40
2018-10-11T20:32:37.699Z,30.53
2018-10-11T20:35:07.443Z,26.83
2018-10-11T20:37:37.079Z,27.23
2018-10-11T20:40:06.846Z,28.07
2018-10-11T20:42:36.483Z,29.17
2018-10-11T20:45:06.640Z,27.33
2018-10-11T20:47:36.447Z,27.93
2018-10-11T20:50:06.883Z,28.10
2018-10-11T20:52:36.513Z,28.50
2018-10-11T20:55:07.011Z,27.22
2018-10-11T20:57:36.575Z,26.50
2018-10-11T21:00:08.118Z,27.20
2018-10-11T21:02:37.828Z,26.87
2018-10-11T21:05:07.686Z,29.47
2018-10-11T21:07:37.395Z,33.47
2018-10-11T21:10:07.358Z,27.83
2018-10-11T21:12:37.007Z,28.67
2018-10-11T21:15:06.824Z,29.17
2018-10-11T21:17:36.378Z,30.62
2018-10-11T21:20:07.152Z,27.98
2018-10-11T21:22:36.703Z,27.30
2018-10-11T21:25:07.076Z,31.12
2018-10-11T21:27:36.674Z,29.40
2018-10-11T21:30:07.990Z,31.80
2018-10-11T21:32:37.928Z,28.97
2018-10-11T21:35:08.206Z,29.07
2018-10-11T21:37:37.885Z,30.03
2018-10-11T21:40:07.632Z,28.83
2018-10-11T21:42:37.317Z,30.00
2018-10-11T21:45:07.067Z,27.53
2018-10-11T21:47:36.651Z,31.60
2018-10-11T21:50:06.604Z,31.03
2018-10-11T21:52:38.175Z,29.03
2018-10-11T21:55:08.135Z,31.10
2018-10-11T21:57:38.787Z,33.07
2018-10-11T22:00:09.028Z,30.67
2018-10-11T22:02:38.699Z,30.53
2018-10-11T22:05:08.351Z,30.37
2018-10-11T22:07:38.096Z,30.53
2018-10-11T22:10:08.075Z,29.57
2018-10-11T22:12:37.842Z,29.33
2018-10-11T22:15:07.783Z,30.73
2018-10-11T22:17:37.426Z,31.47
2018-10-11T22:20:08.145Z,30.43
2018-10-11T22:22:38.083Z,30.60
2018-10-11T22:25:09.165Z,29.67
2018-10-11T22:27:39.200Z,31.00
2018-10-11T22:30:09.128Z,32.67
2018-10-11T22:32:38.792Z,29.87
2018-10-11T22:35:09.053Z,33.30
2018-10-11T22:37:38.670Z,31.43
2018-10-11T22:40:09.089Z,33.93
2018-10-11T22:42:39.144Z,29.27
2018-10-11T22:45:08.823Z,31.50
2018-10-11T22:47:38.420Z,30.30
2018-10-11T22:50:08.207Z,30.50
2018-10-11T22:52:37.818Z,29.97
2018-10-11T22:55:07.567Z,33.67
2018-10-11T22:57:37.159Z,31.13
2018-10-11T23:00:06.871Z,35.07
2018-10-11T23:02:36.452Z,31.83
2018-10-11T23:05:06.342Z,35.03
2018-10-11T23:07:36.247Z,30.43
2018-10-11T23:10:05.837Z,37.63
2018-10-11T23:12:35.458Z,32.73
2018-10-11T23:15:15.069Z,36.90
2018-10-11T23:17:52.278Z,33.53
2018-10-11T23:20:30.022Z,35.40
2018-10-11T23:23:06.914Z,36.30
2018-10-11T23:25:43.309Z,33.33
2018-10-11T23:28:21.138Z,35.17
2018-10-11T23:30:59.097Z,36.03
2018-10-11T23:33:36.833Z,32.63
2018-10-11T23:36:14.361Z,34.10
2018-10-11T23:38:51.820Z,35.00
2018-10-11T23:41:31.032Z,31.52
2018-10-11T23:44:12.583Z,34.43
2018-10-11T23:46:53.927Z,34.23
2018-10-11T23:49:32.259Z,31.17
2018-10-11T23:52:09.975Z,33.10
2018-10-11T23:54:47.282Z,34.53
2018-10-11T23:57:24.977Z,33.97
